createdAt,value
2024-01-03T00:00:58.984Z,50.05
2024-01-03T00:02:01.215Z,50.10
2024-01-03T00:03:02.599Z,50.00
2024-01-03T00:04:04.082Z,50.08
2024-01-03T00:05:05.576Z,50.04
2024-01-03T00:06:07.191Z,49.99
2024-01-03T00:07:08.647Z,49.94
2024-01-03T00:08:11.441Z,49.97
2024-01-03T00:09:13.114Z,50.08
2024-01-03T00:10:20.227Z,50.00
2024-01-03T00:11:29.026Z,50.00
2024-01-03T00:12:30.427Z,50.08
2024-01-03T00:13:34.504Z,50.09
2024-01-03T00:14:36.129Z,49.91
2024-01-03T00:15:37.512Z,50.21
2024-01-03T00:16:40.012Z,49.99
2024-01-03T00:17:44.133Z,50.08
2024-01-03T00:18:52.082Z,50.08
2024-01-03T00:19:55.673Z,50.04
2024-01-03T00:20:58.025Z,50.01
2024-01-03T00:22:00.252Z,49.91
2024-01-03T00:23:04.354Z,49.99
2024-01-03T00:24:06.159Z,50.08
2024-01-03T00:25:07.744Z,50.02
2024-01-03T00:26:09.147Z,50.06
2024-01-03T00:27:10.549Z,50.05
2024-01-03T00:28:11.930Z,50.05
2024-01-03T00:29:25.323Z,49.94
2024-01-03T00:30:26.777Z,50.06
2024-01-03T00:31:38.569Z,49.99
2024-01-03T00:32:44.870Z,50.06
2024-01-03T00:33:49.154Z,50.00
2024-01-03T00:34:50.670Z,50.07
2024-01-03T00:35:52.876Z,50.03
2024-01-03T00:36:57.187Z,49.98
2024-01-03T00:37:58.572Z,50.04
2024-01-03T00:38:59.961Z,49.99
2024-01-03T00:40:01.376Z,50.12
2024-01-03T00:41:03.293Z,50.06
2024-01-03T00:42:05.410Z,49.90
2024-01-03T00:43:06.803Z,50.01
2024-01-03T00:44:08.164Z,50.07
2024-01-03T00:45:09.553Z,50.08
2024-01-03T00:46:10.924Z,50.26
2024-01-03T00:47:12.402Z,50.09
2024-01-03T00:48:14.257Z,50.12
2024-01-03T00:49:16.445Z,50.07
2024-01-03T00:50:18.133Z,49.99
2024-01-03T00:51:19.601Z,50.08
2024-01-03T00:52:21.558Z,49.86
2024-01-03T00:53:23.072Z,49.98
2024-01-03T00:54:24.484Z,50.12
2024-01-03T00:55:25.877Z,50.05
2024-01-03T00:56:28.191Z,50.09
2024-01-03T00:57:29.659Z,50.11
2024-01-03T00:58:31.048Z,50.13
2024-01-03T00:59:36.082Z,50.17
2024-01-03T01:00:38.014Z,49.96
2024-01-03T01:01:39.478Z,50.08
2024-01-03T01:02:40.900Z,49.96
2024-01-03T01:03:42.309Z,50.12
2024-01-03T01:04:43.768Z,50.08
2024-01-03T01:05:45.377Z,50.19
2024-01-03T01:06:46.824Z,50.07
2024-01-03T01:07:48.225Z,50.14
2024-01-03T01:08:50.848Z,49.97
2024-01-03T01:09:52.289Z,50.00
2024-01-03T01:10:53.700Z,50.08
2024-01-03T01:11:55.118Z,50.04
2024-01-03T01:12:57.388Z,50.15
2024-01-03T01:13:58.810Z,50.14
2024-01-03T01:15:02.154Z,49.97
2024-01-03T01:16:03.605Z,50.17
2024-01-03T01:17:05.000Z,50.00
2024-01-03T01:18:06.661Z,50.13
2024-01-03T01:19:08.915Z,50.15
2024-01-03T01:20:10.568Z,49.85
2024-01-03T01:21:11.946Z,50.15
2024-01-03T01:22:13.379Z,50.08
2024-01-03T01:23:14.869Z,50.08
2024-01-03T01:24:16.311Z,49.96
2024-01-03T01:25:18.789Z,49.99
2024-01-03T01:26:20.234Z,50.00
2024-01-03T01:27:21.707Z,50.08
2024-01-03T01:28:23.101Z,50.05
2024-01-03T01:29:24.484Z,50.02
2024-01-03T01:30:25.923Z,50.02
2024-01-03T01:31:27.307Z,49.96
2024-01-03T01:32:28.760Z,50.03
2024-01-03T01:33:30.294Z,50.05
2024-01-03T01:34:31.710Z,50.01
2024-01-03T01:35:33.116Z,50.02
2024-01-03T01:36:34.512Z,49.95
2024-01-03T01:37:35.917Z,50.06
2024-01-03T01:38:37.376Z,50.16
2024-01-03T01:39:38.774Z,50.08
2024-01-03T01:40:40.130Z,50.05
2024-01-03T01:41:41.571Z,50.04
2024-01-03T01:42:43.410Z,50.14
2024-01-03T01:43:44.813Z,50.02
2024-01-03T01:44:46.250Z,50.03
2024-01-03T01:45:47.960Z,49.90
2024-01-03T01:46:49.365Z,49.95
2024-01-03T01:47:50.817Z,49.97
2024-01-03T01:48:52.407Z,50.01
2024-01-03T01:49:54.074Z,49.88
2024-01-03T01:50:55.508Z,49.88
2024-01-03T01:51:56.924Z,49.88
2024-01-03T01:52:59.438Z,49.87
2024-01-03T01:54:01.281Z,49.97
2024-01-03T01:55:03.333Z,49.95
2024-01-03T01:56:04.863Z,49.97
2024-01-03T01:57:06.449Z,49.97
2024-01-03T01:58:08.390Z,49.93
2024-01-03T01:59:09.927Z,49.98
2024-01-03T02:00:11.562Z,49.85
2024-01-03T02:01:12.956Z,49.90
2024-01-03T02:02:14.382Z,49.91
2024-01-03T02:03:15.787Z,49.69
2024-01-03T02:04:17.154Z,49.74
2024-01-03T02:05:19.434Z,49.97
2024-01-03T02:06:20.924Z,49.98
2024-01-03T02:07:23.092Z,49.88
2024-01-03T02:08:24.472Z,49.95
2024-01-03T02:09:25.856Z,49.95
2024-01-03T02:10:27.247Z,49.97
2024-01-03T02:11:28.731Z,49.98
2024-01-03T02:12:30.117Z,49.96
2024-01-03T02:13:31.499Z,49.94
2024-01-03T02:14:32.883Z,49.93
2024-01-03T02:15:34.249Z,50.00
2024-01-03T02:16:35.611Z,49.90
2024-01-03T02:17:38.562Z,49.90
2024-01-03T02:18:40.589Z,49.95
2024-01-03T02:19:42.100Z,49.89
2024-01-03T02:20:43.602Z,50.01
2024-01-03T02:21:45.047Z,49.93
2024-01-03T02:22:46.464Z,49.99
2024-01-03T02:23:47.898Z,50.01
2024-01-03T02:24:49.368Z,49.91
2024-01-03T02:25:50.752Z,49.90
2024-01-03T02:26:52.167Z,50.04
2024-01-03T02:27:53.580Z,49.95
2024-01-03T02:28:55.001Z,50.00
2024-01-03T02:29:56.474Z,49.98
2024-01-03T02:30:57.989Z,49.85
2024-01-03T02:31:59.421Z,49.82
2024-01-03T02:33:00.962Z,49.82
2024-01-03T02:34:02.638Z,49.99
2024-01-03T02:35:05.990Z,49.90
2024-01-03T02:36:07.422Z,49.95
2024-01-03T02:37:09.623Z,49.96
2024-01-03T02:38:11.293Z,49.88
2024-01-03T02:39:12.778Z,49.90
2024-01-03T02:40:14.152Z,49.76
2024-01-03T02:41:15.567Z,49.98
2024-01-03T02:42:16.979Z,49.94
2024-01-03T02:43:18.362Z,49.93
2024-01-03T02:44:21.700Z,49.95
2024-01-03T02:45:23.140Z,49.67
2024-01-03T02:46:24.506Z,49.97
2024-01-03T02:47:25.978Z,49.87
2024-01-03T02:48:27.542Z,50.01
2024-01-03T02:49:29.105Z,49.93
2024-01-03T02:50:30.591Z,49.92
2024-01-03T02:51:32.053Z,49.88
2024-01-03T02:52:35.796Z,49.91
2024-01-03T02:53:38.253Z,49.99
2024-01-03T02:54:39.663Z,49.84
2024-01-03T02:55:41.064Z,49.96
2024-01-03T02:56:42.464Z,49.90
2024-01-03T02:57:43.887Z,49.75
2024-01-03T02:58:45.242Z,49.90
2024-01-03T02:59:46.656Z,49.93
2024-01-03T03:00:48.084Z,49.79
2024-01-03T03:01:49.526Z,49.84
2024-01-03T03:02:50.921Z,49.84
2024-01-03T03:03:52.417Z,49.91
2024-01-03T03:04:53.885Z,49.79
2024-01-03T03:05:55.380Z,49.90
2024-01-03T03:06:56.929Z,49.86
2024-01-03T03:07:58.402Z,49.86
2024-01-03T03:09:08.743Z,49.82
2024-01-03T03:10:17.186Z,49.90
2024-01-03T03:11:18.586Z,49.88
2024-01-03T03:12:19.979Z,49.76
2024-01-03T03:13:21.353Z,49.91
2024-01-03T03:14:23.243Z,49.79
2024-01-03T03:15:24.710Z,49.80
2024-01-03T03:16:26.864Z,49.83
2024-01-03T03:17:28.410Z,49.89
2024-01-03T03:18:30.636Z,49.90
2024-01-03T03:19:32.222Z,49.82
2024-01-03T03:20:33.732Z,49.87
2024-01-03T03:21:35.153Z,49.73
2024-01-03T03:22:36.518Z,49.83
2024-01-03T03:23:37.983Z,49.70
2024-01-03T03:24:39.390Z,49.75
2024-01-03T03:25:40.758Z,49.94
2024-01-03T03:26:42.197Z,49.84
2024-01-03T03:27:43.576Z,49.83
2024-01-03T03:28:44.941Z,49.80
2024-01-03T03:29:46.328Z,49.87
2024-01-03T03:30:47.765Z,49.88
2024-01-03T03:31:49.790Z,49.86
2024-01-03T03:32:51.382Z,49.75
2024-01-03T03:33:53.004Z,49.76
2024-01-03T03:34:54.662Z,49.77
2024-01-03T03:35:56.100Z,49.80
2024-01-03T03:36:57.514Z,49.78
2024-01-03T03:37:58.897Z,49.86
2024-01-03T03:39:00.365Z,49.75
2024-01-03T03:40:01.764Z,49.83
2024-01-03T03:41:03.133Z,49.80
2024-01-03T03:42:04.580Z,49.78
2024-01-03T03:43:05.970Z,49.79
2024-01-03T03:44:07.369Z,49.65
2024-01-03T03:45:08.832Z,49.72
2024-01-03T03:46:11.773Z,49.73
2024-01-03T03:47:13.169Z,49.72
2024-01-03T03:48:14.961Z,49.75
2024-01-03T03:49:16.723Z,49.70
2024-01-03T03:50:18.248Z,49.58
2024-01-03T03:51:19.792Z,49.61
2024-01-03T03:52:21.276Z,49.55
2024-01-03T03:53:22.706Z,49.46
2024-01-03T03:54:24.089Z,49.47
2024-01-03T03:55:26.408Z,49.43
2024-01-03T03:56:28.089Z,49.39
2024-01-03T03:57:29.493Z,49.33
2024-01-03T03:58:30.841Z,49.26
2024-01-03T03:59:32.239Z,49.43
2024-01-03T04:00:33.684Z,49.50
2024-01-03T04:01:35.119Z,49.35
2024-01-03T04:02:36.498Z,49.40
2024-01-03T04:03:37.929Z,49.39
2024-01-03T04:04:39.589Z,49.41
2024-01-03T04:05:41.045Z,49.53
2024-01-03T04:06:43.386Z,49.50
2024-01-03T04:07:44.809Z,49.60
2024-01-03T04:08:46.727Z,49.49
2024-01-03T04:09:48.118Z,49.72
2024-01-03T04:10:49.531Z,49.78
2024-01-03T04:11:50.941Z,49.73
2024-01-03T04:12:53.841Z,49.83
2024-01-03T04:13:55.238Z,49.63
2024-01-03T04:14:56.732Z,49.80
2024-01-03T04:15:58.360Z,49.82
2024-01-03T04:16:59.727Z,49.81
2024-01-03T04:18:01.451Z,49.73
2024-01-03T04:19:03.091Z,49.78
2024-01-03T04:20:04.632Z,49.67
2024-01-03T04:21:09.620Z,49.72
2024-01-03T04:22:11.186Z,49.64
2024-01-03T04:23:12.573Z,49.91
2024-01-03T04:24:14.603Z,49.98
2024-01-03T04:25:16.134Z,49.82
2024-01-03T04:26:17.801Z,49.85
2024-01-03T04:27:19.206Z,49.86
2024-01-03T04:28:20.592Z,50.01
2024-01-03T04:29:22.036Z,50.14
2024-01-03T04:30:23.756Z,50.03
2024-01-03T04:31:25.513Z,50.04
2024-01-03T04:32:26.907Z,50.11
2024-01-03T04:33:28.539Z,50.37
2024-01-03T04:34:30.033Z,50.18
2024-01-03T04:35:31.455Z,50.18
2024-01-03T04:36:32.844Z,50.31
2024-01-03T04:37:35.195Z,50.20
2024-01-03T04:38:36.622Z,50.09
2024-01-03T04:39:38.019Z,50.06
2024-01-03T04:40:39.750Z,49.98
2024-01-03T04:41:41.219Z,50.02
2024-01-03T04:42:43.033Z,50.17
2024-01-03T04:43:44.464Z,50.00
2024-01-03T04:44:46.090Z,50.07
2024-01-03T04:45:48.793Z,50.11
2024-01-03T04:46:50.788Z,50.05
2024-01-03T04:47:52.294Z,50.07
2024-01-03T04:48:53.905Z,50.04
2024-01-03T04:49:55.749Z,50.24
2024-01-03T04:50:57.221Z,50.14
2024-01-03T04:51:58.663Z,50.10
2024-01-03T04:53:00.604Z,50.20
2024-01-03T04:54:02.113Z,50.08
2024-01-03T04:55:03.920Z,50.21
2024-01-03T04:56:05.719Z,50.17
2024-01-03T04:57:07.101Z,50.22
2024-01-03T04:58:08.749Z,50.16
2024-01-03T04:59:10.357Z,50.17
2024-01-03T05:00:12.223Z,50.23
2024-01-03T05:01:13.609Z,50.54
2024-01-03T05:02:15.084Z,50.28
2024-01-03T05:03:17.625Z,50.35
2024-01-03T05:04:19.121Z,50.29
2024-01-03T05:05:20.657Z,50.23
2024-01-03T05:06:22.302Z,50.24
2024-01-03T05:07:24.039Z,50.33
2024-01-03T05:08:25.451Z,50.31
2024-01-03T05:09:26.820Z,50.20
2024-01-03T05:10:28.209Z,50.32
2024-01-03T05:11:29.829Z,50.26
2024-01-03T05:12:31.235Z,50.21
2024-01-03T05:13:32.615Z,50.18
2024-01-03T05:14:34.258Z,50.43
2024-01-03T05:15:35.759Z,50.21
2024-01-03T05:16:37.150Z,50.40
2024-01-03T05:17:38.746Z,50.70
2024-01-03T05:18:40.380Z,50.56
2024-01-03T05:19:44.316Z,50.69
2024-01-03T05:20:45.853Z,50.41
2024-01-03T05:21:47.230Z,50.43
2024-01-03T05:22:48.601Z,50.35
2024-01-03T05:23:50.060Z,50.40
2024-01-03T05:24:52.368Z,50.46
2024-01-03T05:25:53.735Z,50.63
2024-01-03T05:26:55.130Z,50.53
2024-01-03T05:27:56.535Z,50.32
2024-01-03T05:28:57.943Z,50.34
2024-01-03T05:29:59.937Z,50.40
2024-01-03T05:31:01.518Z,50.20
2024-01-03T05:32:02.912Z,50.39
2024-01-03T05:33:04.376Z,50.49
2024-01-03T05:34:06.174Z,50.47
2024-01-03T05:35:07.769Z,50.66
2024-01-03T05:36:09.249Z,50.78
2024-01-03T05:37:11.936Z,50.82
2024-01-03T05:38:13.330Z,50.76
2024-01-03T05:39:14.712Z,50.81
2024-01-03T05:40:19.269Z,50.72
2024-01-03T05:41:20.700Z,50.63
2024-01-03T05:42:22.181Z,50.62
2024-01-03T05:43:24.373Z,50.53
2024-01-03T05:44:25.899Z,50.62
2024-01-03T05:45:27.300Z,50.51
2024-01-03T05:46:28.679Z,50.54
2024-01-03T05:47:30.174Z,50.73
2024-01-03T05:48:31.874Z,50.52
2024-01-03T05:49:35.484Z,50.65
2024-01-03T05:50:37.051Z,50.70
2024-01-03T05:51:38.491Z,50.76
2024-01-03T05:52:39.910Z,51.07
2024-01-03T05:53:48.183Z,50.99
2024-01-03T05:54:49.747Z,50.58
2024-01-03T05:55:52.952Z,50.44
2024-01-03T05:56:54.379Z,50.74
2024-01-03T05:57:55.790Z,50.48
2024-01-03T05:58:57.195Z,50.22
2024-01-03T05:59:58.692Z,50.13
2024-01-03T06:01:00.144Z,49.97
2024-01-03T06:02:01.543Z,49.80
2024-01-03T06:03:03.607Z,49.95
2024-01-03T06:04:05.109Z,50.07
2024-01-03T06:05:07.114Z,50.31
2024-01-03T06:06:08.574Z,50.17
2024-01-03T06:07:10.082Z,50.37
2024-01-03T06:08:12.409Z,50.36
2024-01-03T06:09:14.076Z,50.28
2024-01-03T06:10:15.475Z,50.19
2024-01-03T06:11:16.870Z,50.26
2024-01-03T06:12:18.262Z,50.35
2024-01-03T06:13:20.979Z,50.39
2024-01-03T06:14:22.406Z,50.36
2024-01-03T06:15:24.039Z,50.37
2024-01-03T06:16:25.463Z,50.42
2024-01-03T06:17:26.941Z,50.08
2024-01-03T06:18:28.437Z,50.24
2024-01-03T06:19:30.084Z,50.24
2024-01-03T06:20:31.562Z,50.14
2024-01-03T06:21:34.051Z,50.21
2024-01-03T06:22:35.501Z,50.28
2024-01-03T06:23:38.369Z,50.38
2024-01-03T06:24:39.792Z,50.45
2024-01-03T06:25:41.201Z,50.48
2024-01-03T06:26:42.614Z,50.36
2024-01-03T06:27:44.036Z,50.49
2024-01-03T06:28:45.442Z,50.30
2024-01-03T06:29:46.869Z,50.52
2024-01-03T06:30:48.315Z,50.58
2024-01-03T06:31:49.731Z,50.31
2024-01-03T06:32:51.189Z,50.44
2024-01-03T06:33:52.916Z,50.64
2024-01-03T06:34:54.576Z,50.57
2024-01-03T06:35:55.966Z,50.50
2024-01-03T06:36:58.352Z,50.65
2024-01-03T06:37:59.744Z,50.55
2024-01-03T06:39:01.312Z,50.61
2024-01-03T06:40:02.727Z,50.49
2024-01-03T06:41:04.084Z,50.54
2024-01-03T06:42:06.004Z,50.75
2024-01-03T06:43:08.487Z,50.65
2024-01-03T06:44:09.967Z,50.44
2024-01-03T06:45:11.519Z,50.80
2024-01-03T06:46:12.966Z,50.81
2024-01-03T06:47:14.540Z,50.76
2024-01-03T06:48:16.498Z,50.70
2024-01-03T06:49:18.665Z,50.59
2024-01-03T06:50:20.189Z,50.68
2024-01-03T06:51:21.636Z,50.77
2024-01-03T06:52:23.019Z,50.88
2024-01-03T06:53:24.386Z,50.90
2024-01-03T06:54:25.996Z,50.88
2024-01-03T06:55:27.414Z,50.85
2024-01-03T06:56:28.824Z,50.61
2024-01-03T06:57:30.203Z,50.67
2024-01-03T06:58:31.821Z,50.62
2024-01-03T06:59:37.148Z,50.63
2024-01-03T07:00:38.720Z,50.76
2024-01-03T07:01:40.170Z,50.76
2024-01-03T07:02:41.654Z,50.74
2024-01-03T07:03:43.812Z,50.75
2024-01-03T07:04:45.219Z,50.80
2024-01-03T07:05:46.664Z,50.58
2024-01-03T07:06:48.385Z,50.56
2024-01-03T07:07:49.791Z,50.67
2024-01-03T07:08:53.014Z,50.64
2024-01-03T07:09:54.405Z,50.84
2024-01-03T07:10:56.370Z,50.78
2024-01-03T07:11:57.858Z,50.87
2024-01-03T07:12:59.588Z,50.82
2024-01-03T07:14:01.001Z,50.76
2024-01-03T07:15:02.376Z,50.80
2024-01-03T07:16:03.812Z,50.66
2024-01-03T07:17:05.218Z,50.73
2024-01-03T07:18:07.962Z,50.73
2024-01-03T07:19:09.731Z,50.83
2024-01-03T07:20:11.421Z,50.87
2024-01-03T07:21:12.885Z,50.78
2024-01-03T07:22:14.301Z,50.78
2024-01-03T07:23:15.698Z,50.75
2024-01-03T07:24:17.115Z,50.60
2024-01-03T07:25:18.512Z,50.83
2024-01-03T07:26:19.953Z,50.81
2024-01-03T07:27:21.390Z,50.82
2024-01-03T07:28:22.776Z,50.86
2024-01-03T07:29:24.205Z,50.75
2024-01-03T07:30:27.795Z,50.90
2024-01-03T07:31:29.295Z,50.76
2024-01-03T07:32:30.790Z,50.81
2024-01-03T07:33:32.324Z,51.00
2024-01-03T07:34:33.925Z,50.96
2024-01-03T07:35:35.349Z,50.94
2024-01-03T07:36:36.743Z,50.99
2024-01-03T07:37:38.119Z,50.98
2024-01-03T07:38:39.522Z,50.86
2024-01-03T07:39:41.033Z,51.01
2024-01-03T07:40:42.509Z,51.20
2024-01-03T07:41:44.495Z,51.14
2024-01-03T07:42:46.143Z,51.16
2024-01-03T07:43:47.595Z,51.22
2024-01-03T07:44:48.999Z,51.30
2024-01-03T07:45:50.417Z,51.34
2024-01-03T07:46:51.825Z,51.12
2024-01-03T07:47:53.324Z,51.26
2024-01-03T07:48:54.839Z,51.29
2024-01-03T07:49:56.313Z,51.21
2024-01-03T07:50:57.791Z,51.28
2024-01-03T07:51:59.229Z,51.26
2024-01-03T07:53:00.592Z,51.36
2024-01-03T07:54:02.077Z,51.38
2024-01-03T07:55:03.566Z,51.24
2024-01-03T07:56:07.554Z,51.21
2024-01-03T07:57:09.643Z,51.08
2024-01-03T07:58:11.208Z,50.91
2024-01-03T07:59:12.768Z,50.90
2024-01-03T08:00:14.447Z,51.15
2024-01-03T08:01:15.875Z,51.18
2024-01-03T08:02:17.402Z,51.07
2024-01-03T08:03:18.795Z,51.15
2024-01-03T08:04:20.214Z,51.10
2024-01-03T08:05:21.847Z,50.92
2024-01-03T08:06:23.528Z,50.98
2024-01-03T08:07:24.997Z,50.75
2024-01-03T08:08:26.403Z,50.88
2024-01-03T08:09:27.800Z,50.92
2024-01-03T08:10:29.168Z,50.76
2024-01-03T08:11:30.564Z,50.64
2024-01-03T08:12:31.968Z,50.85
2024-01-03T08:13:33.372Z,50.58
2024-01-03T08:14:35.290Z,50.62
2024-01-03T08:15:36.811Z,50.64
2024-01-03T08:16:38.186Z,50.46
2024-01-03T08:17:39.678Z,50.40
2024-01-03T08:18:41.205Z,50.53
2024-01-03T08:19:42.949Z,50.54
2024-01-03T08:20:44.675Z,50.44
2024-01-03T08:21:46.219Z,50.73
2024-01-03T08:22:48.022Z,50.29
2024-01-03T08:23:49.627Z,50.68
2024-01-03T08:24:51.018Z,50.57
2024-01-03T08:25:52.380Z,50.54
2024-01-03T08:26:53.768Z,50.23
2024-01-03T08:27:55.149Z,49.99
2024-01-03T08:28:56.515Z,50.02
2024-01-03T08:29:57.902Z,50.10
2024-01-03T08:30:59.352Z,50.10
2024-01-03T08:32:00.789Z,50.16
2024-01-03T08:33:02.314Z,49.69
2024-01-03T08:34:04.031Z,48.69
2024-01-03T08:35:05.564Z,48.27
2024-01-03T08:36:11.710Z,48.20
2024-01-03T08:37:13.060Z,47.59
2024-01-03T08:38:14.422Z,47.51
2024-01-03T08:39:15.879Z,47.58
2024-01-03T08:40:17.231Z,48.38
2024-01-03T08:41:20.896Z,49.58
2024-01-03T08:42:23.912Z,48.51
2024-01-03T08:43:25.289Z,48.55
2024-01-03T08:44:27.004Z,48.45
2024-01-03T08:45:28.395Z,48.37
2024-01-03T08:46:33.698Z,48.38
2024-01-03T08:47:35.132Z,48.54
2024-01-03T08:48:37.902Z,48.48
2024-01-03T08:49:39.673Z,48.54
2024-01-03T08:50:41.797Z,48.55
2024-01-03T08:51:49.407Z,48.76
2024-01-03T08:52:50.877Z,48.83
2024-01-03T08:53:52.313Z,49.03
2024-01-03T08:54:53.703Z,48.98
2024-01-03T08:55:55.088Z,49.01
2024-01-03T08:56:56.512Z,48.97
2024-01-03T08:57:59.303Z,48.92
2024-01-03T08:59:00.702Z,49.13
2024-01-03T09:00:02.292Z,49.19
2024-01-03T09:01:03.868Z,49.26
2024-01-03T09:02:05.279Z,49.22
2024-01-03T09:03:07.022Z,49.24
2024-01-03T09:04:08.542Z,49.09
2024-01-03T09:05:10.437Z,49.32
2024-01-03T09:06:12.837Z,49.28
2024-01-03T09:07:14.273Z,49.39
2024-01-03T09:08:15.738Z,49.34
2024-01-03T09:09:17.131Z,49.38
2024-01-03T09:10:19.046Z,49.42
2024-01-03T09:11:20.531Z,49.48
2024-01-03T09:12:23.520Z,49.35
2024-01-03T09:13:24.942Z,49.34
2024-01-03T09:14:26.354Z,49.50
2024-01-03T09:15:27.731Z,49.50
2024-01-03T09:16:31.442Z,49.57
2024-01-03T09:17:33.012Z,49.49
2024-01-03T09:18:34.733Z,49.58
2024-01-03T09:19:36.854Z,49.50
2024-01-03T09:20:38.295Z,49.51
2024-01-03T09:21:48.629Z,49.59
2024-01-03T09:22:51.697Z,49.63
2024-01-03T09:23:53.135Z,49.39
2024-01-03T09:24:54.538Z,49.51
2024-01-03T09:25:56.693Z,49.36
2024-01-03T09:26:58.857Z,49.40
2024-01-03T09:28:03.189Z,49.48
2024-01-03T09:29:06.831Z,49.36
2024-01-03T09:30:08.487Z,49.56
2024-01-03T09:31:10.006Z,49.51
2024-01-03T09:32:11.431Z,49.46
2024-01-03T09:33:14.216Z,49.48
2024-01-03T09:34:15.929Z,49.61
2024-01-03T09:35:17.440Z,49.51
2024-01-03T09:36:22.956Z,49.69
2024-01-03T09:37:29.611Z,49.59
2024-01-03T09:38:31.379Z,49.57
2024-01-03T09:39:32.874Z,49.49
2024-01-03T09:40:35.117Z,49.67
2024-01-03T09:41:36.525Z,49.68
2024-01-03T09:42:38.705Z,49.59
2024-01-03T09:43:46.325Z,49.54
2024-01-03T09:44:47.816Z,49.62
2024-01-03T09:45:49.238Z,49.55
2024-01-03T09:46:51.089Z,49.70
2024-01-03T09:47:52.572Z,49.58
2024-01-03T09:48:54.237Z,49.67
2024-01-03T09:49:55.752Z,49.72
2024-01-03T09:50:57.193Z,49.65
2024-01-03T09:51:58.603Z,49.70
2024-01-03T09:52:59.990Z,49.77
2024-01-03T09:54:01.419Z,49.69
2024-01-03T09:55:03.224Z,49.75
2024-01-03T09:56:04.736Z,49.77
2024-01-03T09:57:06.602Z,49.86
2024-01-03T09:58:08.261Z,49.67
2024-01-03T09:59:09.857Z,49.60
2024-01-03T10:00:11.433Z,49.67
2024-01-03T10:01:12.856Z,49.72
2024-01-03T10:02:14.259Z,49.66
2024-01-03T10:03:15.700Z,49.59
2024-01-03T10:04:17.131Z,49.72
2024-01-03T10:05:19.082Z,49.68
2024-01-03T10:06:21.594Z,49.71
2024-01-03T10:07:33.504Z,49.62
2024-01-03T10:08:37.979Z,49.58
2024-01-03T10:09:42.896Z,49.60
2024-01-03T10:10:46.628Z,49.63
2024-01-03T10:11:48.473Z,49.73
2024-01-03T10:12:49.848Z,49.55
2024-01-03T10:13:52.667Z,49.57
2024-01-03T10:14:54.084Z,49.67
2024-01-03T10:15:55.475Z,49.63
2024-01-03T10:16:56.849Z,49.50
2024-01-03T10:18:05.237Z,49.50
2024-01-03T10:19:11.435Z,49.44
2024-01-03T10:20:26.087Z,49.54
2024-01-03T10:21:27.513Z,49.41
2024-01-03T10:22:28.903Z,49.40
2024-01-03T10:23:30.294Z,49.50
2024-01-03T10:24:34.694Z,49.44
2024-01-03T10:25:36.449Z,49.47
2024-01-03T10:26:38.094Z,49.41
2024-01-03T10:27:40.512Z,49.58
2024-01-03T10:28:41.886Z,49.56
2024-01-03T10:29:43.308Z,49.65
2024-01-03T10:30:48.879Z,49.42
2024-01-03T10:31:50.350Z,49.64
2024-01-03T10:32:58.733Z,49.36
2024-01-03T10:34:03.714Z,49.52
2024-01-03T10:35:16.302Z,49.52
2024-01-03T10:36:17.878Z,49.57
2024-01-03T10:37:19.342Z,49.40
2024-01-03T10:38:21.890Z,49.58
2024-01-03T10:39:23.538Z,49.41
2024-01-03T10:40:25.527Z,49.54
2024-01-03T10:41:26.918Z,49.64
2024-01-03T10:42:28.973Z,49.59
2024-01-03T10:43:30.489Z,49.46
2024-01-03T10:44:31.920Z,49.50
2024-01-03T10:45:33.329Z,49.49
2024-01-03T10:46:34.706Z,49.63
2024-01-03T10:47:36.137Z,49.56
2024-01-03T10:48:37.623Z,49.64
2024-01-03T10:49:39.157Z,49.50
2024-01-03T10:50:42.663Z,49.79
2024-01-03T10:51:46.634Z,49.51
2024-01-03T10:52:51.263Z,49.56
2024-01-03T10:53:59.791Z,49.67
2024-01-03T10:55:01.235Z,49.67
2024-01-03T10:56:03.267Z,49.52
2024-01-03T10:57:04.746Z,49.72
2024-01-03T10:58:15.602Z,49.71
2024-01-03T10:59:18.272Z,49.68
2024-01-03T11:00:24.319Z,49.62
2024-01-03T11:01:30.100Z,49.69
2024-01-03T11:02:38.633Z,49.60
2024-01-03T11:03:49.931Z,49.83
2024-01-03T11:04:55.054Z,49.63
2024-01-03T11:06:05.431Z,49.64
2024-01-03T11:07:14.933Z,49.80
2024-01-03T11:08:16.575Z,49.76
2024-01-03T11:09:21.049Z,49.70
2024-01-03T11:10:41.947Z,49.73
2024-01-03T11:11:43.850Z,49.76
2024-01-03T11:12:45.283Z,49.75
2024-01-03T11:13:47.238Z,49.69
2024-01-03T11:14:50.254Z,49.72
2024-01-03T11:15:54.420Z,49.79
2024-01-03T11:16:55.800Z,49.81
2024-01-03T11:17:57.368Z,49.96
2024-01-03T11:18:59.710Z,49.64
2024-01-03T11:20:10.166Z,49.67
2024-01-03T11:21:26.305Z,49.71
2024-01-03T11:22:30.907Z,49.68
2024-01-03T11:23:32.311Z,49.69
2024-01-03T11:24:33.661Z,49.76
2024-01-03T11:25:50.558Z,49.86
2024-01-03T11:26:55.104Z,49.63
2024-01-03T11:28:15.366Z,49.63
2024-01-03T11:29:35.089Z,49.90
2024-01-03T11:30:42.693Z,49.64
2024-01-03T11:31:56.078Z,49.70
2024-01-03T11:32:57.599Z,49.84
2024-01-03T11:34:00.531Z,49.75
2024-01-03T11:35:03.026Z,49.69
2024-01-03T11:36:04.517Z,49.84
2024-01-03T11:37:06.817Z,49.72
2024-01-03T11:38:08.359Z,49.73
2024-01-03T11:39:09.933Z,49.75
2024-01-03T11:40:18.296Z,49.70
2024-01-03T11:41:19.968Z,49.64
2024-01-03T11:42:22.176Z,49.66
2024-01-03T11:43:23.560Z,49.75
2024-01-03T11:44:24.968Z,49.79
2024-01-03T11:45:26.376Z,49.75
2024-01-03T11:46:27.781Z,49.66
2024-01-03T11:47:29.489Z,49.70
2024-01-03T11:48:31.043Z,49.71
2024-01-03T11:49:32.929Z,49.66
2024-01-03T11:50:35.995Z,49.85
2024-01-03T11:51:38.966Z,49.60
2024-01-03T11:52:41.080Z,49.54
2024-01-03T11:53:42.527Z,49.77
2024-01-03T11:54:44.931Z,49.71
2024-01-03T11:55:52.403Z,49.68
2024-01-03T11:56:57.424Z,49.77
2024-01-03T11:58:02.438Z,49.79
2024-01-03T11:59:04.440Z,49.72
2024-01-03T12:00:07.009Z,49.66
2024-01-03T12:01:08.883Z,49.63
2024-01-03T12:02:12.334Z,49.63
2024-01-03T12:03:18.351Z,49.78
2024-01-03T12:04:19.807Z,49.64
2024-01-03T12:05:22.614Z,49.77
2024-01-03T12:06:24.169Z,49.57
2024-01-03T12:07:25.579Z,49.47
2024-01-03T12:08:26.978Z,49.42
2024-01-03T12:09:30.824Z,49.51
2024-01-03T12:10:32.365Z,49.56
2024-01-03T12:11:34.276Z,49.50
2024-01-03T12:12:36.349Z,49.61
2024-01-03T12:13:37.746Z,49.55
2024-01-03T12:14:39.174Z,49.67
2024-01-03T12:15:48.781Z,49.44
2024-01-03T12:16:55.174Z,49.64
2024-01-03T12:18:06.863Z,49.66
2024-01-03T12:19:08.735Z,49.50
2024-01-03T12:20:10.791Z,49.50
2024-01-03T12:21:12.454Z,49.58
2024-01-03T12:22:20.206Z,49.56
2024-01-03T12:23:22.193Z,49.43
2024-01-03T12:24:37.172Z,49.48
2024-01-03T12:25:40.041Z,49.56
2024-01-03T12:26:41.564Z,49.55
2024-01-03T12:27:42.970Z,49.52
2024-01-03T12:28:44.355Z,49.47
2024-01-03T12:29:45.863Z,49.57
2024-01-03T12:30:47.333Z,49.46
2024-01-03T12:31:52.284Z,49.51
2024-01-03T12:33:06.342Z,49.48
2024-01-03T12:34:08.070Z,49.52
2024-01-03T12:35:12.214Z,49.49
2024-01-03T12:36:14.521Z,49.44
2024-01-03T12:37:16.168Z,49.64
2024-01-03T12:38:17.564Z,49.42
2024-01-03T12:39:18.960Z,49.50
2024-01-03T12:40:20.332Z,49.65
2024-01-03T12:41:21.728Z,49.62
2024-01-03T12:42:32.272Z,49.61
2024-01-03T12:43:40.639Z,49.60
2024-01-03T12:44:43.943Z,49.70
2024-01-03T12:45:45.498Z,49.48
2024-01-03T12:46:46.895Z,49.61
2024-01-03T12:47:49.062Z,49.61
2024-01-03T12:48:51.661Z,49.65
2024-01-03T12:49:56.308Z,49.72
2024-01-03T12:50:57.893Z,49.45
2024-01-03T12:51:59.309Z,49.51
2024-01-03T12:53:00.677Z,49.60
2024-01-03T12:54:02.094Z,49.56
2024-01-03T12:55:07.546Z,49.56
2024-01-03T12:56:08.927Z,49.47
2024-01-03T12:57:10.395Z,49.55
2024-01-03T12:58:11.788Z,49.45
2024-01-03T12:59:13.233Z,49.40
2024-01-03T13:00:15.812Z,49.43
2024-01-03T13:01:17.372Z,49.52
2024-01-03T13:02:18.770Z,49.62
2024-01-03T13:03:20.216Z,49.54
2024-01-03T13:04:21.625Z,49.59
2024-01-03T13:05:23.322Z,49.50
2024-01-03T13:06:24.841Z,49.63
2024-01-03T13:07:26.260Z,49.52
2024-01-03T13:08:27.765Z,49.40
2024-01-03T13:09:29.169Z,49.64
2024-01-03T13:10:31.924Z,49.62
2024-01-03T13:11:34.724Z,49.64
2024-01-03T13:12:37.682Z,49.49
2024-01-03T13:13:39.180Z,49.57
2024-01-03T13:14:40.639Z,49.50
2024-01-03T13:15:44.064Z,49.70
2024-01-03T13:16:46.074Z,49.58
2024-01-03T13:17:47.571Z,49.67
2024-01-03T13:18:49.150Z,49.47
2024-01-03T13:19:50.772Z,49.60
2024-01-03T13:20:53.195Z,49.57
2024-01-03T13:21:54.630Z,49.51
2024-01-03T13:22:56.238Z,49.55